PWSweather.com
Personal Weather Stations
Station Observations
SANDHURSTWX
SandhurstGB

SandhurstGB

Lat: 51.3522, Lon: -0.7739

Elevation: 272.3

Station Type: Davis VP2

www.sandhurstweather.org.uk

High Low Average
Temperature 80.2°F26.8°C 48.8°F9.3°C 66.0°F18.9°C
Dew Point 58.5°F14.7°C 46.8°F8.2°C 54.4°F12.4°C
Winds 8.1 mph 13.0 kmh Calm Calm 3.0 mph S4.8 kmh S
Wind Gusts 12.7 mph20.4 kmh -- 5.0 mph8.0 kmh
Humidity 95% 45% 69%
Pressure 30.17 in1021.7 mb 29.95 in1014.2 mb -
Precipitation 0.00 in0.0 mm - -
Hour Temp Dew Point Humidity Winds Wind Gusts Pressure Precip Precip Rate Daily Precip Total
12:00 AM 53.8°F12.1°C 50.6°F10.3°C 89% Calm Calm 1.2 mph1.9 kmh 30.17 in1021.7 mb - 0.00 in0.0 mm 0.00 in0.0 mm
01:00 AM 52.2°F11.2°C 49.3°F9.6°C 90% Calm Calm -- 30.17 in1021.7 mb - 0.00 in0.0 mm 0.00 in0.0 mm
02:00 AM 51.5°F10.8°C 49.0°F9.4°C 91% Calm Calm -- 30.16 in1021.3 mb - 0.00 in0.0 mm 0.00 in0.0 mm
03:00 AM 50.4°F10.2°C 48.2°F9.0°C 92% Calm Calm -- 30.16 in1021.3 mb - 0.00 in0.0 mm 0.00 in0.0 mm
04:00 AM 49.0°F9.4°C 46.8°F8.2°C 92% Calm Calm -- 30.16 in1021.3 mb - 0.00 in0.0 mm 0.00 in0.0 mm
05:00 AM 48.8°F9.3°C 46.9°F8.3°C 93% Calm Calm -- 30.16 in1021.3 mb - 0.00 in0.0 mm 0.00 in0.0 mm
06:00 AM 51.4°F10.8°C 50.0°F10.0°C 95% 3.5 mph S5.6 kmh S 4.6 mph7.4 kmh 30.16 in1021.3 mb - 0.00 in0.0 mm 0.00 in0.0 mm
07:00 AM 55.0°F12.8°C 52.7°F11.5°C 92% 2.3 mph S3.7 kmh S 3.5 mph5.6 kmh 30.16 in1021.3 mb - 0.00 in0.0 mm 0.00 in0.0 mm
08:00 AM 60.7°F15.9°C 55.5°F13.1°C 83% 2.3 mph S3.7 kmh S 1.2 mph1.9 kmh 30.16 in1021.3 mb - 0.00 in0.0 mm 0.00 in0.0 mm
09:00 AM 69.4°F20.8°C 56.7°F13.7°C 64% 1.2 mph SSE1.9 kmh SSE 8.1 mph13.0 kmh 30.15 in1021.0 mb - 0.00 in0.0 mm 0.00 in0.0 mm
10:00 AM 72.9°F22.7°C 55.3°F12.9°C 54% 2.3 mph S3.7 kmh S 2.3 mph3.7 kmh 30.13 in1020.3 mb - 0.00 in0.0 mm 0.00 in0.0 mm
11:00 AM 76.4°F24.7°C 53.5°F11.9°C 45% 3.5 mph S5.6 kmh S 9.2 mph14.8 kmh 30.12 in1020.0 mb - 0.00 in0.0 mm 0.00 in0.0 mm
12:00 PM 78.5°F25.8°C 57.2°F14.0°C 48% 3.5 mph WSW5.6 kmh WSW 6.9 mph11.1 kmh 30.11 in1019.6 mb - 0.00 in0.0 mm 0.00 in0.0 mm
01:00 PM 79.5°F26.4°C 58.1°F14.5°C 48% 2.3 mph SSW3.7 kmh SSW 4.6 mph7.4 kmh 30.09 in1019.0 mb - 0.00 in0.0 mm 0.00 in0.0 mm
02:00 PM 80.2°F26.8°C 57.6°F14.2°C 46% 3.5 mph SSW5.6 kmh SSW 4.6 mph7.4 kmh 30.07 in1018.3 mb - 0.00 in0.0 mm 0.00 in0.0 mm
03:00 PM 79.1°F26.2°C 56.5°F13.6°C 46% 3.5 mph S5.6 kmh S 6.9 mph11.1 kmh 30.05 in1017.6 mb - 0.00 in0.0 mm 0.00 in0.0 mm
04:00 PM 80.2°F26.8°C 56.9°F13.8°C 45% 3.5 mph S5.6 kmh S 4.6 mph7.4 kmh 30.02 in1016.6 mb - 0.00 in0.0 mm 0.00 in0.0 mm
05:00 PM 78.2°F25.7°C 56.9°F13.8°C 48% 4.6 mph SSE7.4 kmh SSE 12.7 mph20.4 kmh 30.01 in1016.3 mb - 0.00 in0.0 mm 0.00 in0.0 mm
06:00 PM 75.5°F24.2°C 57.7°F14.3°C 54% 8.1 mph S13.0 kmh S 12.7 mph20.4 kmh 30.00 in1015.9 mb - 0.00 in0.0 mm 0.00 in0.0 mm
07:00 PM 73.2°F22.9°C 58.0°F14.4°C 59% 6.9 mph S11.1 kmh S 10.4 mph16.7 kmh 29.99 in1015.6 mb - 0.00 in0.0 mm 0.00 in0.0 mm
08:00 PM 70.4°F21.3°C 58.5°F14.7°C 66% 3.5 mph S5.6 kmh S 4.6 mph7.4 kmh 29.98 in1015.2 mb - 0.00 in0.0 mm 0.00 in0.0 mm
09:00 PM 67.9°F19.9°C 58.5°F14.7°C 72% 1.2 mph S1.9 kmh S 2.3 mph3.7 kmh 29.98 in1015.2 mb - 0.00 in0.0 mm 0.00 in0.0 mm
10:00 PM 66.2°F19.0°C 58.0°F14.4°C 75% 3.5 mph SSE5.6 kmh SSE 5.8 mph9.3 kmh 29.96 in1014.6 mb - 0.00 in0.0 mm 0.00 in0.0 mm
11:00 PM 64.5°F18.1°C 56.8°F13.8°C 76% 4.6 mph S7.4 kmh S 6.9 mph11.1 kmh 29.95 in1014.2 mb - 0.00 in0.0 mm 0.00 in0.0 mm